Datil, NM (87821)

4:11 PM MDT on October 21, 2014 (GMT -0600)
Crows Nest - on the Hill - where Hwys 60 and 12 meet. | Change Station
CLOSE
Current Station
Personal Weather Station
Location: Datil, NM
Elevation: 7586 ft
Nearby Weather Stations

Elev 7586 ft 34.13 °N, 107.85 °W | Updated 2 minutes ago

Partly Cloudy
Partly Cloudy
59.8 °F
Feels Like 59.8 °F
N
1.0
Wind Variable Wind from ESE
Gusts 7.0 mph

Today
High -- | Low -- °F
--% Chance of Precip.
Yesterday
High -- | Low -- °F
Precip. -- in
7:22 AM 6:30 PM
Waning Crescent, 4% visible
Pressure 30.07 in
Visibility 10.0 miles
Clouds Scattered Clouds 4400 ft
Dew Point 45 °F
Humidity 58%
Rainfall 0.00 in
Snow Depth Not available.
UV 2 out of 12
Pollen 3.00 out of 12
Air Quality Not available.
Flu Activity Sporadic
METAR KE80 212155Z AUTO 16012G17KT 10SM SCT044 20/08 A3007 RMK AO2 T02000076

More Conditions Fewer Conditions

Pressure 30.07 in
Visibility 10.0 miles
Clouds Scattered Clouds 4400 ft
Dew Point 45 °F
Humidity 58%
Rainfall 0.00 in
Snow Depth Not available.
UV 2 out of 12
Pollen 3.00 out of 12
Air Quality Not available.
Flu Activity Sporadic
METAR KE80 212155Z AUTO 16012G17KT 10SM SCT044 20/08 A3007 RMK AO2 T02000076

More Conditions Fewer Conditions

Nowcast | as of 3:58 PM MDT on October 21, 2014

Afternoon heating has and will continue to spawn isolated showers and possibly a thunderstorm or two over western areas of the state. Through 600 PM...the better developed showers will pass between Bluewater and El Morro...perhaps as far east as el Malpais...Grants and San Rafael....as well as near Chaco Canyon...Pueblo Pintado... Acoma Pueblo...Datil...and Alamo. Expect small foot prints of light to moderate rain with amounts around one quarter inch and locally up to one half inch. Movement will be toward the east-northeast at around 20 mph.

×

10-Day Weather Forecast

Almanac

Astronomy

Oct. 21, 2014 Rise Set
Actual Time 7:22 AM MDT 6:30 PM MDT
Civil Twilight 6:56 AM MDT 6:56 PM MDT
Nautical Twilight 6:27 AM MDT 7:25 PM MDT
Astronomical Twilight 5:58 AM MDT 7:54 PM MDT
Moon 5:15 AM MDT 5:21 PM MDT
Length of Visible Light 11h 59m
Length of Day
11h 08m
Tomorrow will be 1m 58s shorter.
Waning Crescent, 4% of the Moon is Illuminated
Today
Waning Crescent
Oct 23
New
Oct 30
First Quarter
Nov 6
Full
Nov 14
Last Quarter

Today's Extremes

State Highs State Lows

Community

WunderPhotos

Upload Photos

1,763,798 photos uploaded!

Nearby

Snow Depth

Station Depth Elevation
Frisco Divide 0 in 8000 ft
Silver Creek Divide 1 in 9000 ft
McKnight Cabin 0 in 9240 ft
Sierra Blanca 0 in 10280 ft
Senorita Divide #2 0 in 8600 ft

Earthquake Activity

City Distance Mag. Time & Date
No recent earthquake activity has been reported nearby.
Minimum magnitude displayed is 2.5.

Coastal Water Temperatures

Place Temperature
No Stations Reporting

Nearby Weather Stations